sensor_id;sensor_type;location;lat;lon;timestamp;pressure;altitude;pressure_sealevel;temperature;humidity
59545;BME280;45368;55.002;-1.592;2022-12-13T00:00:24;100319.14;;;-2.37;56.62
59545;BME280;45368;55.002;-1.592;2022-12-13T00:02:51;100319.78;;;-3.09;57.44
59545;BME280;45368;55.002;-1.592;2022-12-13T00:05:18;100326.25;;;-3.99;60.71
59545;BME280;45368;55.002;-1.592;2022-12-13T00:07:48;100327.81;;;-3.90;60.90
59545;BME280;45368;55.002;-1.592;2022-12-13T00:10:15;100317.79;;;-2.13;56.41
59545;BME280;45368;55.002;-1.592;2022-12-13T00:12:43;100321.61;;;-3.20;58.48
59545;BME280;45368;55.002;-1.592;2022-12-13T00:15:11;100316.20;;;-2.12;56.46
59545;BME280;45368;55.002;-1.592;2022-12-13T00:17:38;100317.96;;;-2.67;57.41
59545;BME280;45368;55.002;-1.592;2022-12-13T00:20:06;100318.88;;;-2.29;57.02
59545;BME280;45368;55.002;-1.592;2022-12-13T00:22:33;100321.29;;;-2.56;57.33
59545;BME280;45368;55.002;-1.592;2022-12-13T00:25:01;100319.01;;;-2.62;57.87
59545;BME280;45368;55.002;-1.592;2022-12-13T00:27:28;100317.43;;;-2.92;59.49
59545;BME280;45368;55.002;-1.592;2022-12-13T00:29:55;100315.95;;;-2.85;59.87
59545;BME280;45368;55.002;-1.592;2022-12-13T00:32:22;100314.10;;;-3.47;60.72
59545;BME280;45368;55.002;-1.592;2022-12-13T00:34:49;100309.90;;;-2.32;57.46
59545;BME280;45368;55.002;-1.592;2022-12-13T00:37:16;100306.45;;;-1.72;56.05
59545;BME280;45368;55.002;-1.592;2022-12-13T00:39:44;100299.98;;;-1.12;54.41
59545;BME280;45368;55.002;-1.592;2022-12-13T00:42:11;100302.29;;;-2.85;56.86
59545;BME280;45368;55.002;-1.592;2022-12-13T00:44:39;100300.62;;;-2.93;57.13
59545;BME280;45368;55.002;-1.592;2022-12-13T00:47:06;100293.52;;;-1.37;54.19
59545;BME280;45368;55.002;-1.592;2022-12-13T00:49:33;100294.22;;;-2.33;56.40
59545;BME280;45368;55.002;-1.592;2022-12-13T00:52:01;100281.48;;;-0.93;53.32
59545;BME280;45368;55.002;-1.592;2022-12-13T00:54:29;100277.66;;;-0.96;53.01
59545;BME280;45368;55.002;-1.592;2022-12-13T00:56:57;100280.43;;;-0.72;52.71
59545;BME280;45368;55.002;-1.592;2022-12-13T00:59:24;100277.02;;;-0.59;52.69
59545;BME280;45368;55.002;-1.592;2022-12-13T01:01:52;100277.49;;;-0.82;52.48
59545;BME280;45368;55.002;-1.592;2022-12-13T01:04:19;100279.62;;;-0.71;52.99
59545;BME280;45368;55.002;-1.592;2022-12-13T01:06:46;100282.54;;;-0.64;52.35
59545;BME280;45368;55.002;-1.592;2022-12-13T01:09:16;100277.46;;;-0.25;51.29
59545;BME280;45368;55.002;-1.592;2022-12-13T01:11:48;100275.04;;;0.01;51.18
59545;BME280;45368;55.002;-1.592;2022-12-13T01:14:16;100273.91;;;-0.33;50.74
59545;BME280;45368;55.002;-1.592;2022-12-13T01:16:43;100274.13;;;-0.06;50.74
59545;BME280;45368;55.002;-1.592;2022-12-13T01:19:11;100279.65;;;-0.89;51.49
59545;BME280;45368;55.002;-1.592;2022-12-13T01:21:38;100282.96;;;-1.42;53.79
59545;BME280;45368;55.002;-1.592;2022-12-13T01:24:06;100286.88;;;-1.75;55.08
59545;BME280;45368;55.002;-1.592;2022-12-13T01:26:33;100281.29;;;-1.27;54.13
59545;BME280;45368;55.002;-1.592;2022-12-13T01:29:00;100285.05;;;-2.43;55.86
59545;BME280;45368;55.002;-1.592;2022-12-13T01:31:28;100285.70;;;-3.16;57.45
59545;BME280;45368;55.002;-1.592;2022-12-13T01:33:55;100286.48;;;-1.95;55.97
59545;BME280;45368;55.002;-1.592;2022-12-13T01:36:23;100285.75;;;-1.55;54.34
59545;BME280;45368;55.002;-1.592;2022-12-13T01:38:50;100286.72;;;-1.14;53.87
59545;BME280;45368;55.002;-1.592;2022-12-13T01:41:19;100284.40;;;-1.50;54.56
59545;BME280;45368;55.002;-1.592;2022-12-13T01:43:53;100277.13;;;-1.24;53.07
59545;BME280;45368;55.002;-1.592;2022-12-13T01:46:21;100282.16;;;-1.80;53.41
59545;BME280;45368;55.002;-1.592;2022-12-13T01:48:53;100289.44;;;-2.70;55.94
59545;BME280;45368;55.002;-1.592;2022-12-13T01:51:28;100287.43;;;-1.30;54.67
59545;BME280;45368;55.002;-1.592;2022-12-13T01:54:00;100289.03;;;-2.23;55.14
59545;BME280;45368;55.002;-1.592;2022-12-13T01:56:32;100289.41;;;-3.34;57.38
59545;BME280;45368;55.002;-1.592;2022-12-13T01:59:02;100283.49;;;-1.45;54.01
59545;BME280;45368;55.002;-1.592;2022-12-13T02:01:32;100286.54;;;-1.09;52.78
59545;BME280;45368;55.002;-1.592;2022-12-13T02:03:59;100287.89;;;-1.75;54.26
59545;BME280;45368;55.002;-1.592;2022-12-13T02:06:30;100292.21;;;-2.51;55.38
59545;BME280;45368;55.002;-1.592;2022-12-13T02:09:00;100291.97;;;-2.31;55.93
59545;BME280;45368;55.002;-1.592;2022-12-13T02:11:28;100293.86;;;-2.67;56.26
59545;BME280;45368;55.002;-1.592;2022-12-13T02:13:55;100291.19;;;-1.49;53.95
59545;BME280;45368;55.002;-1.592;2022-12-13T02:16:34;100290.20;;;-1.40;53.18
59545;BME280;45368;55.002;-1.592;2022-12-13T02:19:28;100286.03;;;-1.77;53.34
59545;BME280;45368;55.002;-1.592;2022-12-13T02:22:13;100286.93;;;-1.83;54.30
59545;BME280;45368;55.002;-1.592;2022-12-13T02:25:01;100290.16;;;-2.49;56.20
59545;BME280;45368;55.002;-1.592;2022-12-13T02:27:47;100293.54;;;-1.98;54.93
59545;BME280;45368;55.002;-1.592;2022-12-13T02:30:20;100293.97;;;-2.65;56.21
59545;BME280;45368;55.002;-1.592;2022-12-13T02:33:07;100294.45;;;-2.41;56.15
59545;BME280;45368;55.002;-1.592;2022-12-13T02:35:42;100292.64;;;-2.85;56.88
59545;BME280;45368;55.002;-1.592;2022-12-13T02:38:15;100292.22;;;-3.15;57.44
59545;BME280;45368;55.002;-1.592;2022-12-13T02:40:46;100298.59;;;-2.35;56.78
59545;BME280;45368;55.002;-1.592;2022-12-13T02:43:21;100298.93;;;-3.53;58.64
59545;BME280;45368;55.002;-1.592;2022-12-13T02:45:52;100288.19;;;-1.39;54.82
59545;BME280;45368;55.002;-1.592;2022-12-13T02:48:25;100296.07;;;-3.75;58.49
59545;BME280;45368;55.002;-1.592;2022-12-13T02:50:53;100287.56;;;-1.73;54.26
59545;BME280;45368;55.002;-1.592;2022-12-13T02:53:29;100285.71;;;-1.45;53.37
59545;BME280;45368;55.002;-1.592;2022-12-13T02:55:57;100285.67;;;-2.36;54.73
59545;BME280;45368;55.002;-1.592;2022-12-13T02:58:28;100288.02;;;-2.65;56.60
59545;BME280;45368;55.002;-1.592;2022-12-13T03:01:02;100285.29;;;-2.90;57.21
59545;BME280;45368;55.002;-1.592;2022-12-13T03:03:43;100283.05;;;-2.94;57.15
59545;BME280;45368;55.002;-1.592;2022-12-13T03:06:24;100279.37;;;-3.54;58.66
59545;BME280;45368;55.002;-1.592;2022-12-13T03:09:02;100272.82;;;-2.14;56.34
59545;BME280;45368;55.002;-1.592;2022-12-13T03:11:31;100278.50;;;-3.05;57.48
59545;BME280;45368;55.002;-1.592;2022-12-13T03:14:06;100274.47;;;-2.52;56.19
59545;BME280;45368;55.002;-1.592;2022-12-13T03:16:39;100277.28;;;-2.50;56.05
59545;BME280;45368;55.002;-1.592;2022-12-13T03:19:10;100275.17;;;-3.48;58.05
59545;BME280;45368;55.002;-1.592;2022-12-13T03:21:40;100271.35;;;-2.60;57.66
59545;BME280;45368;55.002;-1.592;2022-12-13T03:24:09;100262.47;;;-1.94;55.29
59545;BME280;45368;55.002;-1.592;2022-12-13T03:26:37;100264.00;;;-3.58;57.89
59545;BME280;45368;55.002;-1.592;2022-12-13T03:29:06;100260.23;;;-2.49;55.94
59545;BME280;45368;55.002;-1.592;2022-12-13T03:31:33;100257.94;;;-2.28;55.61
59545;BME280;45368;55.002;-1.592;2022-12-13T03:34:01;100251.18;;;-1.46;53.36
59545;BME280;45368;55.002;-1.592;2022-12-13T03:36:28;100256.11;;;-2.73;55.89
59545;BME280;45368;55.002;-1.592;2022-12-13T03:38:56;100253.40;;;-1.69;54.21
59545;BME280;45368;55.002;-1.592;2022-12-13T03:41:25;100257.07;;;-2.76;56.01
59545;BME280;45368;55.002;-1.592;2022-12-13T03:43:53;100247.70;;;-1.41;53.74
59545;BME280;45368;55.002;-1.592;2022-12-13T03:46:20;100246.95;;;-0.90;52.32
59545;BME280;45368;55.002;-1.592;2022-12-13T03:48:48;100247.34;;;-0.77;51.33
59545;BME280;45368;55.002;-1.592;2022-12-13T03:51:15;100245.39;;;-0.94;52.19
59545;BME280;45368;55.002;-1.592;2022-12-13T03:53:42;100248.79;;;-1.53;52.33
59545;BME280;45368;55.002;-1.592;2022-12-13T03:56:10;100249.71;;;-1.64;53.23
59545;BME280;45368;55.002;-1.592;2022-12-13T03:58:37;100243.91;;;-0.64;51.59
59545;BME280;45368;55.002;-1.592;2022-12-13T04:01:06;100241.73;;;-1.60;53.12
59545;BME280;45368;55.002;-1.592;2022-12-13T04:03:35;100244.46;;;-1.83;53.31
59545;BME280;45368;55.002;-1.592;2022-12-13T04:06:02;100252.65;;;-3.11;56.51
59545;BME280;45368;55.002;-1.592;2022-12-13T04:08:35;100248.63;;;-1.82;54.00
59545;BME280;45368;55.002;-1.592;2022-12-13T04:11:07;100244.13;;;-1.51;53.59
59545;BME280;45368;55.002;-1.592;2022-12-13T04:13:37;100247.29;;;-1.91;54.00
59545;BME280;45368;55.002;-1.592;2022-12-13T04:16:05;100246.52;;;-2.07;54.52
59545;BME280;45368;55.002;-1.592;2022-12-13T04:18:33;100246.33;;;-2.17;55.44
59545;BME280;45368;55.002;-1.592;2022-12-13T04:23:20;100245.23;;;-2.37;55.66
59545;BME280;45368;55.002;-1.592;2022-12-13T04:25:56;100249.56;;;-3.10;56.93
59545;BME280;45368;55.002;-1.592;2022-12-13T04:28:24;100248.73;;;-3.54;57.28
59545;BME280;45368;55.002;-1.592;2022-12-13T04:31:12;100249.79;;;-2.52;56.32
59545;BME280;45368;55.002;-1.592;2022-12-13T04:33:42;100249.00;;;-3.08;56.31
59545;BME280;45368;55.002;-1.592;2022-12-13T04:36:21;100248.25;;;-2.90;55.40
59545;BME280;45368;55.002;-1.592;2022-12-13T04:38:59;100246.01;;;-2.83;54.39
59545;BME280;45368;55.002;-1.592;2022-12-13T04:43:41;100237.82;;;-1.25;53.45
59545;BME280;45368;55.002;-1.592;2022-12-13T04:46:09;100241.90;;;-1.78;53.88
59545;BME280;45368;55.002;-1.592;2022-12-13T04:49:48;100234.64;;;-0.71;51.38
59545;BME280;45368;55.002;-1.592;2022-12-13T04:52:15;100235.54;;;-1.46;51.24
59545;BME280;45368;55.002;-1.592;2022-12-13T04:54:50;100233.48;;;-1.46;51.79
59545;BME280;45368;55.002;-1.592;2022-12-13T04:57:17;100228.94;;;-1.61;51.01
59545;BME280;45368;55.002;-1.592;2022-12-13T04:59:44;100235.12;;;-3.02;54.42
59545;BME280;45368;55.002;-1.592;2022-12-13T05:02:12;100240.77;;;-3.45;55.38
59545;BME280;45368;55.002;-1.592;2022-12-13T05:04:39;100237.51;;;-2.61;54.45
59545;BME280;45368;55.002;-1.592;2022-12-13T05:07:06;100226.53;;;-1.61;52.70
59545;BME280;45368;55.002;-1.592;2022-12-13T05:09:33;100225.14;;;-1.52;51.94
59545;BME280;45368;55.002;-1.592;2022-12-13T05:12:02;100217.02;;;-0.62;49.86
59545;BME280;45368;55.002;-1.592;2022-12-13T05:14:30;100218.82;;;-1.10;49.41
59545;BME280;45368;55.002;-1.592;2022-12-13T05:16:57;100214.76;;;-0.98;48.39
59545;BME280;45368;55.002;-1.592;2022-12-13T05:19:25;100215.53;;;-0.51;48.87
59545;BME280;45368;55.002;-1.592;2022-12-13T05:21:52;100216.54;;;-1.60;49.97
59545;BME280;45368;55.002;-1.592;2022-12-13T05:24:19;100216.44;;;-1.72;51.34
59545;BME280;45368;55.002;-1.592;2022-12-13T05:26:46;100221.58;;;-1.51;51.84
59545;BME280;45368;55.002;-1.592;2022-12-13T05:29:13;100224.05;;;-2.14;52.46
59545;BME280;45368;55.002;-1.592;2022-12-13T05:31:40;100217.29;;;-1.57;52.37
59545;BME280;45368;55.002;-1.592;2022-12-13T05:34:07;100217.28;;;-1.30;51.33
59545;BME280;45368;55.002;-1.592;2022-12-13T05:36:35;100213.53;;;-1.14;50.89
59545;BME280;45368;55.002;-1.592;2022-12-13T05:39:02;100207.16;;;-0.92;50.65
59545;BME280;45368;55.002;-1.592;2022-12-13T05:41:34;100211.91;;;-1.87;52.39
59545;BME280;45368;55.002;-1.592;2022-12-13T05:44:02;100218.99;;;-2.30;53.47
59545;BME280;45368;55.002;-1.592;2022-12-13T05:46:29;100224.82;;;-3.04;56.49
59545;BME280;45368;55.002;-1.592;2022-12-13T05:48:56;100223.14;;;-2.38;55.19
59545;BME280;45368;55.002;-1.592;2022-12-13T05:51:23;100223.58;;;-2.78;56.27
59545;BME280;45368;55.002;-1.592;2022-12-13T05:53:50;100220.14;;;-2.67;56.25
59545;BME280;45368;55.002;-1.592;2022-12-13T05:56:17;100217.88;;;-2.72;57.50
59545;BME280;45368;55.002;-1.592;2022-12-13T05:58:44;100213.80;;;-3.02;58.53
59545;BME280;45368;55.002;-1.592;2022-12-13T06:01:14;100211.82;;;-3.17;58.51
59545;BME280;45368;55.002;-1.592;2022-12-13T06:03:41;100210.84;;;-1.98;55.67
59545;BME280;45368;55.002;-1.592;2022-12-13T06:06:11;100217.36;;;-1.97;55.67
59545;BME280;45368;55.002;-1.592;2022-12-13T06:08:39;100220.90;;;-2.46;56.83
59545;BME280;45368;55.002;-1.592;2022-12-13T06:11:06;100219.57;;;-1.88;55.71
59545;BME280;45368;55.002;-1.592;2022-12-13T06:13:34;100218.92;;;-1.96;56.11
59545;BME280;45368;55.002;-1.592;2022-12-13T06:16:02;100211.77;;;-1.34;54.27
59545;BME280;45368;55.002;-1.592;2022-12-13T06:18:32;100221.80;;;-2.86;57.60
59545;BME280;45368;55.002;-1.592;2022-12-13T06:21:03;100212.61;;;-1.94;56.15
59545;BME280;45368;55.002;-1.592;2022-12-13T06:23:33;100221.58;;;-2.98;57.86
59545;BME280;45368;55.002;-1.592;2022-12-13T06:26:02;100216.26;;;-2.07;55.84
59545;BME280;45368;55.002;-1.592;2022-12-13T06:28:29;100208.79;;;-1.26;54.62
59545;BME280;45368;55.002;-1.592;2022-12-13T06:30:59;100204.84;;;-0.86;53.66
59545;BME280;45368;55.002;-1.592;2022-12-13T06:33:26;100211.11;;;-2.11;55.69
59545;BME280;45368;55.002;-1.592;2022-12-13T06:35:56;100212.42;;;-3.10;58.23
59545;BME280;45368;55.002;-1.592;2022-12-13T06:38:24;100207.37;;;-3.35;58.68
59545;BME280;45368;55.002;-1.592;2022-12-13T06:40:51;100200.68;;;-1.79;55.64
59545;BME280;45368;55.002;-1.592;2022-12-13T06:43:19;100206.34;;;-2.30;57.28
59545;BME280;45368;55.002;-1.592;2022-12-13T06:45:46;100215.02;;;-3.34;58.94
59545;BME280;45368;55.002;-1.592;2022-12-13T06:48:14;100214.00;;;-3.91;61.11
59545;BME280;45368;55.002;-1.592;2022-12-13T06:50:41;100202.93;;;-1.67;56.06
59545;BME280;45368;55.002;-1.592;2022-12-13T06:53:24;100219.19;;;-3.07;58.76
59545;BME280;45368;55.002;-1.592;2022-12-13T06:55:51;100211.98;;;-1.78;55.81
59545;BME280;45368;55.002;-1.592;2022-12-13T06:58:18;100220.31;;;-2.96;58.44
59545;BME280;45368;55.002;-1.592;2022-12-13T07:00:46;100216.85;;;-2.00;56.15
59545;BME280;45368;55.002;-1.592;2022-12-13T07:03:13;100221.70;;;-3.49;59.09
59545;BME280;45368;55.002;-1.592;2022-12-13T07:05:41;100222.92;;;-3.43;60.08
59545;BME280;45368;55.002;-1.592;2022-12-13T07:08:09;100224.78;;;-3.61;60.96
59545;BME280;45368;55.002;-1.592;2022-12-13T07:10:37;100210.40;;;-2.21;57.48
59545;BME280;45368;55.002;-1.592;2022-12-13T07:13:05;100202.74;;;-1.83;55.79
59545;BME280;45368;55.002;-1.592;2022-12-13T07:15:33;100199.86;;;-0.91;54.63
59545;BME280;45368;55.002;-1.592;2022-12-13T07:18:00;100213.90;;;-2.21;56.66
59545;BME280;45368;55.002;-1.592;2022-12-13T07:20:27;100201.45;;;-1.45;55.18
59545;BME280;45368;55.002;-1.592;2022-12-13T07:22:54;100203.37;;;-1.81;55.67
59545;BME280;45368;55.002;-1.592;2022-12-13T07:25:22;100204.20;;;-1.72;55.91
59545;BME280;45368;55.002;-1.592;2022-12-13T07:27:55;100208.16;;;-0.87;54.43
59545;BME280;45368;55.002;-1.592;2022-12-13T07:30:23;100206.80;;;-0.20;53.41
59545;BME280;45368;55.002;-1.592;2022-12-13T07:32:50;100224.38;;;-2.15;56.87
59545;BME280;45368;55.002;-1.592;2022-12-13T07:35:17;100219.09;;;-1.63;56.25
59545;BME280;45368;55.002;-1.592;2022-12-13T07:37:44;100218.84;;;-1.50;56.52
59545;BME280;45368;55.002;-1.592;2022-12-13T07:40:12;100213.55;;;-1.02;55.25
59545;BME280;45368;55.002;-1.592;2022-12-13T07:42:39;100211.92;;;-0.92;54.70
59545;BME280;45368;55.002;-1.592;2022-12-13T07:45:07;100206.24;;;-0.20;53.66
59545;BME280;45368;55.002;-1.592;2022-12-13T07:47:34;100209.61;;;-0.79;54.82
59545;BME280;45368;55.002;-1.592;2022-12-13T07:50:01;100203.64;;;-0.35;53.62
59545;BME280;45368;55.002;-1.592;2022-12-13T07:52:29;100200.63;;;-0.01;52.97
59545;BME280;45368;55.002;-1.592;2022-12-13T07:54:56;100203.23;;;-1.05;54.19
59545;BME280;45368;55.002;-1.592;2022-12-13T07:57:23;100199.77;;;-2.07;55.73
59545;BME280;45368;55.002;-1.592;2022-12-13T07:59:50;100194.32;;;-0.50;53.64
59545;BME280;45368;55.002;-1.592;2022-12-13T08:02:17;100206.04;;;-2.11;56.30
59545;BME280;45368;55.002;-1.592;2022-12-13T08:04:44;100202.30;;;-0.87;54.58
59545;BME280;45368;55.002;-1.592;2022-12-13T08:07:11;100207.57;;;-2.06;56.26
59545;BME280;45368;55.002;-1.592;2022-12-13T08:09:38;100206.39;;;-0.67;54.87
59545;BME280;45368;55.002;-1.592;2022-12-13T08:12:05;100200.74;;;-0.04;52.87
59545;BME280;45368;55.002;-1.592;2022-12-13T08:14:33;100201.02;;;0.52;51.67
59545;BME280;45368;55.002;-1.592;2022-12-13T08:17:00;100205.54;;;-0.82;53.06
59545;BME280;45368;55.002;-1.592;2022-12-13T08:19:28;100209.24;;;-1.91;56.25
59545;BME280;45368;55.002;-1.592;2022-12-13T08:21:55;100204.20;;;-1.26;54.41
59545;BME280;45368;55.002;-1.592;2022-12-13T08:24:22;100208.00;;;-2.09;56.32
59545;BME280;45368;55.002;-1.592;2022-12-13T08:26:50;100203.26;;;-1.38;55.36
59545;BME280;45368;55.002;-1.592;2022-12-13T08:29:18;100206.04;;;-0.08;52.18
59545;BME280;45368;55.002;-1.592;2022-12-13T08:31:45;100207.19;;;0.19;51.32
59545;BME280;45368;55.002;-1.592;2022-12-13T08:34:13;100202.66;;;0.17;50.93
59545;BME280;45368;55.002;-1.592;2022-12-13T08:36:40;100208.88;;;-0.85;52.36
59545;BME280;45368;55.002;-1.592;2022-12-13T08:39:07;100208.11;;;-0.60;52.24
59545;BME280;45368;55.002;-1.592;2022-12-13T08:41:35;100205.67;;;0.34;50.62
59545;BME280;45368;55.002;-1.592;2022-12-13T08:44:02;100206.75;;;-0.36;51.54
59545;BME280;45368;55.002;-1.592;2022-12-13T08:46:30;100206.92;;;-1.28;53.11
59545;BME280;45368;55.002;-1.592;2022-12-13T08:48:57;100201.58;;;0.07;50.93
59545;BME280;45368;55.002;-1.592;2022-12-13T08:51:24;100202.49;;;-0.27;51.13
59545;BME280;45368;55.002;-1.592;2022-12-13T08:53:51;100205.59;;;-0.55;51.41
59545;BME280;45368;55.002;-1.592;2022-12-13T08:56:19;100205.98;;;-1.58;53.97
59545;BME280;45368;55.002;-1.592;2022-12-13T08:58:49;100210.31;;;-1.86;54.90
59545;BME280;45368;55.002;-1.592;2022-12-13T09:01:16;100205.92;;;-0.39;52.24
59545;BME280;45368;55.002;-1.592;2022-12-13T09:03:44;100203.55;;;-0.25;51.53
59545;BME280;45368;55.002;-1.592;2022-12-13T09:06:14;100202.30;;;0.72;49.95
59545;BME280;45368;55.002;-1.592;2022-12-13T09:08:43;100197.85;;;0.08;50.27
59545;BME280;45368;55.002;-1.592;2022-12-13T09:11:10;100196.39;;;0.75;49.86
59545;BME280;45368;55.002;-1.592;2022-12-13T09:13:39;100197.50;;;0.63;49.93
59545;BME280;45368;55.002;-1.592;2022-12-13T09:16:08;100194.75;;;0.45;50.33
59545;BME280;45368;55.002;-1.592;2022-12-13T09:18:36;100199.95;;;-0.76;52.38
59545;BME280;45368;55.002;-1.592;2022-12-13T09:21:06;100199.96;;;-1.34;53.90
59545;BME280;45368;55.002;-1.592;2022-12-13T09:23:34;100192.33;;;0.01;52.23
59545;BME280;45368;55.002;-1.592;2022-12-13T09:26:01;100194.98;;;-0.30;52.51
59545;BME280;45368;55.002;-1.592;2022-12-13T09:28:29;100199.33;;;-0.83;53.32
59545;BME280;45368;55.002;-1.592;2022-12-13T09:30:57;100197.82;;;-0.58;52.43
59545;BME280;45368;55.002;-1.592;2022-12-13T09:33:24;100197.15;;;-0.89;53.28
59545;BME280;45368;55.002;-1.592;2022-12-13T09:35:51;100190.20;;;-0.10;51.73
59545;BME280;45368;55.002;-1.592;2022-12-13T09:38:19;100189.51;;;-0.41;52.70
59545;BME280;45368;55.002;-1.592;2022-12-13T09:40:49;100184.03;;;-0.39;52.68
59545;BME280;45368;55.002;-1.592;2022-12-13T09:43:22;100184.55;;;-0.87;53.75
59545;BME280;45368;55.002;-1.592;2022-12-13T09:45:51;100182.30;;;-0.61;52.90
59545;BME280;45368;55.002;-1.592;2022-12-13T09:48:21;100182.38;;;-0.28;53.07
59545;BME280;45368;55.002;-1.592;2022-12-13T09:50:50;100176.65;;;0.25;51.39
59545;BME280;45368;55.002;-1.592;2022-12-13T09:53:18;100175.18;;;0.50;50.63
59545;BME280;45368;55.002;-1.592;2022-12-13T09:55:48;100180.89;;;0.02;51.79
59545;BME280;45368;55.002;-1.592;2022-12-13T09:58:19;100183.16;;;-0.84;52.61
59545;BME280;45368;55.002;-1.592;2022-12-13T10:00:48;100183.92;;;-0.92;53.93
59545;BME280;45368;55.002;-1.592;2022-12-13T10:03:19;100179.71;;;0.27;52.39
59545;BME280;45368;55.002;-1.592;2022-12-13T10:05:56;100181.60;;;0.06;51.72
59545;BME280;45368;55.002;-1.592;2022-12-13T10:08:27;100177.56;;;0.70;50.76
59545;BME280;45368;55.002;-1.592;2022-12-13T10:10:57;100175.80;;;1.35;49.48
59545;BME280;45368;55.002;-1.592;2022-12-13T10:13:30;100179.55;;;-0.29;51.87
59545;BME280;45368;55.002;-1.592;2022-12-13T10:16:06;100182.16;;;0.77;50.47
59545;BME280;45368;55.002;-1.592;2022-12-13T10:18:37;100182.73;;;0.59;50.45
59545;BME280;45368;55.002;-1.592;2022-12-13T10:21:09;100185.00;;;0.23;51.22
59545;BME280;45368;55.002;-1.592;2022-12-13T10:23:37;100185.94;;;0.82;50.25
59545;BME280;45368;55.002;-1.592;2022-12-13T10:26:08;100185.91;;;-0.02;51.38
59545;BME280;45368;55.002;-1.592;2022-12-13T10:28:36;100186.04;;;1.10;49.85
59545;BME280;45368;55.002;-1.592;2022-12-13T10:31:04;100182.23;;;1.06;49.57
59545;BME280;45368;55.002;-1.592;2022-12-13T10:33:34;100185.98;;;-1.10;53.71
59545;BME280;45368;55.002;-1.592;2022-12-13T10:36:06;100187.86;;;-1.92;57.19
59545;BME280;45368;55.002;-1.592;2022-12-13T10:38:36;100184.19;;;-0.73;54.86
59545;BME280;45368;55.002;-1.592;2022-12-13T10:41:25;100180.67;;;0.46;51.95
59545;BME280;45368;55.002;-1.592;2022-12-13T10:44:08;100176.28;;;0.98;51.16
59545;BME280;45368;55.002;-1.592;2022-12-13T10:46:41;100174.67;;;1.63;49.56
59545;BME280;45368;55.002;-1.592;2022-12-13T10:49:15;100177.14;;;-0.08;51.94
59545;BME280;45368;55.002;-1.592;2022-12-13T10:51:43;100174.55;;;0.11;52.44
59545;BME280;45368;55.002;-1.592;2022-12-13T10:54:15;100176.89;;;-0.02;53.60
59545;BME280;45368;55.002;-1.592;2022-12-13T10:56:46;100179.75;;;-0.46;53.69
59545;BME280;45368;55.002;-1.592;2022-12-13T10:59:26;100175.10;;;1.06;51.02
59545;BME280;45368;55.002;-1.592;2022-12-13T11:01:54;100181.30;;;0.19;51.63
59545;BME280;45368;55.002;-1.592;2022-12-13T11:04:23;100176.53;;;1.32;50.19
59545;BME280;45368;55.002;-1.592;2022-12-13T11:06:52;100176.90;;;-0.27;53.74
59545;BME280;45368;55.002;-1.592;2022-12-13T11:09:30;100173.21;;;-0.53;55.59
59545;BME280;45368;55.002;-1.592;2022-12-13T11:11:59;100172.79;;;-0.15;54.39
59545;BME280;45368;55.002;-1.592;2022-12-13T11:14:31;100172.98;;;-0.31;55.06
59545;BME280;45368;55.002;-1.592;2022-12-13T11:17:05;100176.88;;;-0.36;54.00
59545;BME280;45368;55.002;-1.592;2022-12-13T11:19:38;100173.66;;;0.36;52.88
59545;BME280;45368;55.002;-1.592;2022-12-13T11:22:07;100172.72;;;0.90;51.43
59545;BME280;45368;55.002;-1.592;2022-12-13T11:24:36;100171.51;;;1.02;50.81
59545;BME280;45368;55.002;-1.592;2022-12-13T11:27:20;100164.42;;;2.02;49.24
59545;BME280;45368;55.002;-1.592;2022-12-13T11:30:07;100151.82;;;3.88;44.90
59545;BME280;45368;55.002;-1.592;2022-12-13T11:32:47;100140.63;;;4.47;43.39
59545;BME280;45368;55.002;-1.592;2022-12-13T11:35:23;100134.90;;;6.38;40.12
59545;BME280;45368;55.002;-1.592;2022-12-13T11:38:00;100131.09;;;5.46;39.73
59545;BME280;45368;55.002;-1.592;2022-12-13T11:40:39;100131.22;;;4.41;42.13
59545;BME280;45368;55.002;-1.592;2022-12-13T11:43:15;100133.70;;;4.14;42.45
59545;BME280;45368;55.002;-1.592;2022-12-13T11:45:50;100128.19;;;4.65;42.73
59545;BME280;45368;55.002;-1.592;2022-12-13T11:48:20;100140.61;;;0.99;47.85
59545;BME280;45368;55.002;-1.592;2022-12-13T11:50:51;100133.25;;;2.00;46.87
59545;BME280;45368;55.002;-1.592;2022-12-13T11:53:25;100127.64;;;2.43;46.41
59545;BME280;45368;55.002;-1.592;2022-12-13T11:56:03;100127.38;;;2.27;47.08
59545;BME280;45368;55.002;-1.592;2022-12-13T11:58:40;100122.65;;;1.59;46.63
59545;BME280;45368;55.002;-1.592;2022-12-13T12:01:11;100115.07;;;2.04;46.32
59545;BME280;45368;55.002;-1.592;2022-12-13T12:03:43;100113.93;;;2.09;46.40
59545;BME280;45368;55.002;-1.592;2022-12-13T12:06:19;100116.90;;;1.73;46.96
59545;BME280;45368;55.002;-1.592;2022-12-13T12:08:54;100114.48;;;2.17;46.77
59545;BME280;45368;55.002;-1.592;2022-12-13T12:11:29;100112.50;;;2.08;46.41
59545;BME280;45368;55.002;-1.592;2022-12-13T12:14:01;100110.65;;;1.86;47.23
59545;BME280;45368;55.002;-1.592;2022-12-13T12:16:36;100116.52;;;0.32;50.31
59545;BME280;45368;55.002;-1.592;2022-12-13T12:19:10;100115.98;;;0.74;50.06
59545;BME280;45368;55.002;-1.592;2022-12-13T12:21:53;100111.60;;;1.52;48.00
59545;BME280;45368;55.002;-1.592;2022-12-13T12:24:32;100118.50;;;0.61;50.61
59545;BME280;45368;55.002;-1.592;2022-12-13T12:27:16;100121.23;;;0.16;51.45
59545;BME280;45368;55.002;-1.592;2022-12-13T12:29:58;100114.89;;;1.43;49.07
59545;BME280;45368;55.002;-1.592;2022-12-13T12:32:32;100116.45;;;0.67;50.69
59545;BME280;45368;55.002;-1.592;2022-12-13T12:35:15;100114.72;;;1.20;49.39
59545;BME280;45368;55.002;-1.592;2022-12-13T12:37:51;100115.48;;;1.77;48.49
59545;BME280;45368;55.002;-1.592;2022-12-13T12:40:34;100119.38;;;0.71;49.81
59545;BME280;45368;55.002;-1.592;2022-12-13T12:43:11;100114.60;;;0.67;50.52
59545;BME280;45368;55.002;-1.592;2022-12-13T12:45:53;100108.83;;;0.75;50.07
59545;BME280;45368;55.002;-1.592;2022-12-13T12:48:39;100110.57;;;0.69;49.47
59545;BME280;45368;55.002;-1.592;2022-12-13T12:51:17;100112.73;;;0.00;51.39
59545;BME280;45368;55.002;-1.592;2022-12-13T12:53:51;100113.17;;;0.97;50.57
59545;BME280;45368;55.002;-1.592;2022-12-13T12:56:30;100109.86;;;1.12;50.03
59545;BME280;45368;55.002;-1.592;2022-12-13T12:59:10;100106.21;;;0.34;51.07
59545;BME280;45368;55.002;-1.592;2022-12-13T13:01:51;100099.37;;;1.47;49.55
59545;BME280;45368;55.002;-1.592;2022-12-13T13:04:25;100094.31;;;1.18;48.98